createdAt,value
2022-09-29T00:02:26.784Z,96.00
2022-09-29T00:05:12.507Z,96.40
2022-09-29T00:07:58.268Z,96.30
2022-09-29T00:10:43.856Z,96.20
2022-09-29T00:13:29.259Z,96.10
2022-09-29T00:16:15.367Z,95.90
2022-09-29T00:19:00.615Z,96.00
2022-09-29T00:21:46.172Z,95.90
2022-09-29T00:24:36.973Z,95.80
2022-09-29T00:27:22.482Z,96.00
2022-09-29T00:30:08.140Z,96.20
2022-09-29T00:32:56.170Z,96.30
2022-09-29T00:35:41.578Z,96.30
2022-09-29T00:38:28.340Z,96.50
2022-09-29T00:41:18.873Z,96.50
2022-09-29T00:44:05.839Z,96.60
2022-09-29T00:46:53.556Z,96.70
2022-09-29T00:49:48.648Z,96.60
2022-09-29T00:52:44.612Z,96.60
2022-09-29T00:55:41.781Z,96.80
2022-09-29T00:58:40.722Z,96.90
2022-09-29T01:01:30.664Z,97.00
2022-09-29T01:04:19.067Z,97.00
2022-09-29T01:07:04.437Z,97.00
2022-09-29T01:09:53.852Z,97.20
2022-09-29T01:12:41.639Z,97.10
2022-09-29T01:15:30.099Z,97.00
2022-09-29T01:18:15.727Z,97.00
2022-09-29T01:21:26.440Z,97.30
2022-09-29T01:24:49.683Z,97.20
2022-09-29T01:28:20.367Z,97.10
2022-09-29T01:31:32.851Z,97.30
2022-09-29T01:34:32.106Z,97.40
2022-09-29T01:37:29.915Z,97.40
2022-09-29T01:40:42.034Z,97.50
2022-09-29T01:43:42.965Z,97.70
2022-09-29T01:46:33.702Z,97.70
2022-09-29T01:49:22.223Z,97.70
2022-09-29T01:52:15.727Z,97.60
2022-09-29T01:55:02.639Z,97.70
2022-09-29T01:58:10.226Z,97.60
2022-09-29T02:01:02.228Z,97.60
2022-09-29T02:03:59.283Z,97.70
2022-09-29T02:07:00.279Z,97.50
2022-09-29T02:09:51.255Z,97.60
2022-09-29T02:12:39.795Z,97.70
2022-09-29T02:15:32.295Z,97.60
2022-09-29T02:18:22.351Z,97.70
2022-09-29T02:21:08.990Z,97.60
2022-09-29T02:23:55.427Z,97.50
2022-09-29T02:26:42.993Z,97.60
2022-09-29T02:29:28.539Z,97.50
2022-09-29T02:32:14.112Z,97.60
2022-09-29T02:35:06.656Z,97.70
2022-09-29T02:38:12.254Z,97.90
2022-09-29T02:41:09.980Z,98.00
2022-09-29T02:44:51.372Z,98.20
2022-09-29T02:48:13.294Z,98.00
2022-09-29T02:51:13.478Z,97.90
2022-09-29T02:54:26.761Z,98.20
2022-09-29T02:57:31.146Z,98.20
2022-09-29T03:00:18.356Z,97.80
2022-09-29T03:03:04.028Z,97.50
2022-09-29T03:05:49.563Z,97.50
2022-09-29T03:08:35.078Z,97.50
2022-09-29T03:11:20.792Z,97.50
2022-09-29T03:14:09.446Z,97.50
2022-09-29T03:16:54.684Z,97.50
2022-09-29T03:19:40.021Z,97.50
2022-09-29T03:22:29.165Z,97.60
2022-09-29T03:25:14.778Z,97.70
2022-09-29T03:27:59.979Z,97.80
2022-09-29T03:30:45.607Z,97.80
2022-09-29T03:33:32.273Z,98.00
2022-09-29T03:36:17.799Z,98.20
2022-09-29T03:39:06.114Z,98.30
2022-09-29T03:41:51.798Z,98.50
2022-09-29T03:44:37.188Z,98.30
2022-09-29T03:47:22.771Z,98.50
2022-09-29T03:50:08.758Z,98.50
2022-09-29T03:52:54.160Z,98.30
2022-09-29T03:55:40.902Z,98.20
2022-09-29T03:58:26.390Z,98.30
2022-09-29T04:01:14.827Z,98.50
2022-09-29T04:04:00.624Z,98.70
2022-09-29T04:06:45.989Z,98.70
2022-09-29T04:09:31.592Z,98.80
2022-09-29T04:12:17.633Z,98.60
2022-09-29T04:15:03.514Z,98.70
2022-09-29T04:17:48.710Z,98.80
2022-09-29T04:20:34.201Z,98.80
2022-09-29T04:23:20.132Z,98.80
2022-09-29T04:26:06.250Z,98.70
2022-09-29T04:28:55.973Z,98.60
2022-09-29T04:31:41.602Z,98.60
2022-09-29T04:34:27.195Z,98.50
2022-09-29T04:37:12.855Z,98.50
2022-09-29T04:39:58.387Z,98.50
2022-09-29T04:42:43.851Z,98.50
2022-09-29T04:45:29.642Z,98.40
2022-09-29T04:48:17.884Z,98.60
2022-09-29T04:51:06.421Z,98.60
2022-09-29T04:53:54.852Z,98.60
2022-09-29T04:56:40.391Z,98.30
2022-09-29T04:59:25.994Z,98.30
2022-09-29T05:02:11.649Z,98.40
2022-09-29T05:04:57.106Z,98.10
2022-09-29T05:07:42.430Z,97.90
2022-09-29T05:10:27.991Z,97.90
2022-09-29T05:13:13.502Z,98.30
2022-09-29T05:15:59.675Z,98.30
2022-09-29T05:18:45.119Z,98.20
2022-09-29T05:21:34.668Z,98.00
2022-09-29T05:24:20.271Z,98.20
2022-09-29T05:27:08.321Z,98.30
2022-09-29T05:29:53.729Z,98.50
2022-09-29T05:32:39.443Z,98.50
2022-09-29T05:35:24.875Z,98.60
2022-09-29T05:38:10.140Z,98.60
2022-09-29T05:40:55.669Z,98.70
2022-09-29T05:43:43.443Z,98.70
2022-09-29T05:46:29.046Z,98.50
2022-09-29T05:49:14.172Z,98.50
2022-09-29T05:52:00.045Z,98.40
2022-09-29T05:54:45.603Z,98.60
2022-09-29T05:57:31.955Z,98.50
2022-09-29T06:00:17.356Z,98.60
2022-09-29T06:03:08.199Z,98.60
2022-09-29T06:05:53.796Z,98.60
2022-09-29T06:08:39.751Z,98.60
2022-09-29T06:11:28.271Z,98.80
2022-09-29T06:14:13.669Z,98.70
2022-09-29T06:16:58.979Z,98.60
2022-09-29T06:19:47.456Z,98.70
2022-09-29T06:22:33.688Z,98.60
2022-09-29T06:25:18.895Z,98.60
2022-09-29T06:28:04.427Z,98.80
2022-09-29T06:30:50.316Z,98.70
2022-09-29T06:33:38.977Z,98.40
2022-09-29T06:36:48.005Z,98.30
2022-09-29T06:39:33.367Z,98.30
2022-09-29T06:42:18.977Z,98.30
2022-09-29T06:45:04.711Z,98.30
2022-09-29T06:47:50.343Z,98.40
2022-09-29T06:50:35.876Z,98.40
2022-09-29T06:53:30.885Z,98.50
2022-09-29T06:56:22.843Z,98.60
2022-09-29T06:59:08.887Z,98.50
2022-09-29T07:01:54.462Z,98.40
2022-09-29T07:04:40.000Z,98.50
2022-09-29T07:07:25.123Z,98.60
2022-09-29T07:10:10.700Z,98.60
2022-09-29T07:12:56.511Z,98.60
2022-09-29T07:15:41.944Z,98.70
2022-09-29T07:18:27.008Z,98.90
2022-09-29T07:21:20.334Z,98.90
2022-09-29T07:24:15.524Z,98.90
2022-09-29T07:27:01.127Z,98.90
2022-09-29T07:29:56.513Z,99.00
2022-09-29T07:33:00.615Z,99.10
2022-09-29T07:35:51.944Z,99.00
2022-09-29T07:38:37.969Z,99.20
2022-09-29T07:41:23.778Z,99.50
2022-09-29T07:44:10.326Z,99.40
2022-09-29T07:46:55.668Z,99.50
2022-09-29T07:49:45.091Z,99.50
2022-09-29T07:52:30.759Z,99.50
2022-09-29T07:55:16.335Z,99.30
2022-09-29T07:58:01.742Z,99.20
2022-09-29T08:00:54.026Z,99.20
2022-09-29T08:03:44.047Z,99.00
2022-09-29T08:06:29.624Z,99.00
2022-09-29T08:09:14.938Z,99.10
2022-09-29T08:12:07.883Z,98.90
2022-09-29T08:14:56.378Z,99.20
2022-09-29T08:17:44.665Z,99.40
2022-09-29T08:20:34.941Z,99.70
2022-09-29T08:23:21.776Z,99.40
2022-09-29T08:26:13.526Z,99.40
2022-09-29T08:29:06.409Z,99.50
2022-09-29T08:31:56.661Z,99.90
2022-09-29T08:34:46.433Z,99.90
2022-09-29T08:37:35.271Z,99.90
2022-09-29T08:40:21.366Z,99.90
2022-09-29T08:43:32.038Z,99.90
2022-09-29T08:46:36.336Z,99.90
2022-09-29T08:49:33.051Z,99.90
2022-09-29T08:52:26.935Z,99.90
2022-09-29T08:55:27.409Z,99.90
2022-09-29T08:58:16.828Z,99.90
2022-09-29T09:01:39.858Z,99.90
2022-09-29T09:04:47.779Z,99.90
2022-09-29T09:08:14.137Z,99.90
2022-09-29T09:11:20.573Z,99.90
2022-09-29T09:14:08.880Z,99.90
2022-09-29T09:17:16.073Z,99.90
2022-09-29T09:20:22.248Z,99.90
2022-09-29T09:23:25.692Z,99.90
2022-09-29T09:26:13.004Z,99.90
2022-09-29T09:29:04.635Z,99.90
2022-09-29T09:32:12.550Z,99.90
2022-09-29T09:35:18.967Z,99.90
2022-09-29T09:38:15.224Z,99.90
2022-09-29T09:41:31.017Z,99.90
2022-09-29T09:44:29.510Z,99.90
2022-09-29T09:47:28.640Z,99.90
2022-09-29T09:50:17.139Z,99.90
2022-09-29T09:53:13.176Z,99.90
2022-09-29T09:56:09.827Z,99.90
2022-09-29T09:59:20.555Z,99.90
2022-09-29T10:02:21.844Z,99.90
2022-09-29T10:05:18.887Z,99.90
2022-09-29T10:08:12.459Z,99.80
2022-09-29T10:10:59.864Z,99.90
2022-09-29T10:13:48.128Z,99.90
2022-09-29T10:17:01.918Z,99.60
2022-09-29T10:19:58.781Z,99.70
2022-09-29T10:22:48.433Z,99.60
2022-09-29T10:26:17.259Z,99.50
2022-09-29T10:29:18.404Z,99.20
2022-09-29T10:32:09.051Z,98.80
2022-09-29T10:35:08.167Z,98.80
2022-09-29T10:38:39.610Z,98.30
2022-09-29T10:41:25.531Z,98.30
2022-09-29T10:44:22.170Z,98.30
2022-09-29T10:47:15.204Z,98.80
2022-09-29T10:50:37.500Z,98.70
2022-09-29T10:53:41.711Z,98.50
2022-09-29T10:56:29.910Z,98.30
2022-09-29T10:59:17.152Z,98.80
2022-09-29T11:02:05.532Z,98.80
2022-09-29T11:04:52.943Z,99.10
2022-09-29T11:07:45.441Z,99.50
2022-09-29T11:10:37.152Z,98.60
2022-09-29T11:13:22.843Z,96.80
2022-09-29T11:16:16.272Z,95.70
2022-09-29T11:19:07.045Z,95.00
2022-09-29T11:22:20.902Z,95.30
2022-09-29T11:25:44.034Z,94.10
2022-09-29T11:28:49.275Z,94.20
2022-09-29T11:31:48.779Z,92.90
2022-09-29T11:34:59.195Z,94.10
2022-09-29T11:38:03.425Z,92.80
2022-09-29T11:41:05.534Z,91.60
2022-09-29T11:44:05.460Z,88.20
2022-09-29T11:47:15.470Z,80.70
2022-09-29T11:50:18.458Z,73.30
2022-09-29T11:53:14.313Z,65.70
2022-09-29T11:56:22.821Z,59.80
2022-09-29T11:59:30.419Z,56.60
2022-09-29T12:02:43.298Z,56.00
2022-09-29T12:06:00.203Z,57.50
2022-09-29T12:08:56.290Z,57.80
2022-09-29T12:12:24.562Z,61.40
2022-09-29T12:15:45.939Z,59.70
2022-09-29T12:18:46.352Z,56.80
2022-09-29T12:21:37.896Z,53.80
2022-09-29T12:24:46.684Z,52.00
2022-09-29T12:27:42.698Z,48.50
2022-09-29T12:30:37.095Z,44.70
2022-09-29T12:33:33.340Z,44.00
2022-09-29T12:36:53.741Z,43.90
2022-09-29T12:39:55.600Z,41.30
2022-09-29T12:42:52.558Z,40.90
2022-09-29T12:46:01.152Z,37.50
2022-09-29T12:48:58.782Z,34.80
2022-09-29T12:51:52.395Z,34.70
2022-09-29T12:54:52.935Z,34.10
2022-09-29T12:57:48.332Z,34.80
2022-09-29T13:00:36.671Z,35.00
2022-09-29T13:03:36.602Z,34.50
2022-09-29T13:06:40.562Z,34.50
2022-09-29T13:09:58.688Z,34.80
2022-09-29T13:13:14.807Z,35.90
2022-09-29T13:16:42.822Z,37.00
2022-09-29T13:19:56.967Z,38.30
2022-09-29T13:23:13.342Z,39.70
2022-09-29T13:26:05.410Z,41.50
2022-09-29T13:28:57.714Z,42.40
2022-09-29T13:31:46.138Z,43.60
2022-09-29T13:34:36.059Z,44.40
2022-09-29T13:37:23.850Z,44.90
2022-09-29T13:40:19.144Z,45.10
2022-09-29T13:43:08.007Z,46.00
2022-09-29T13:45:55.855Z,46.40
2022-09-29T13:48:47.663Z,47.10
2022-09-29T13:51:46.053Z,46.90
2022-09-29T13:54:33.035Z,47.00
2022-09-29T13:57:27.150Z,47.60
2022-09-29T14:00:17.951Z,45.60
2022-09-29T14:03:19.535Z,44.40
2022-09-29T14:06:29.209Z,42.10
2022-09-29T14:09:23.630Z,39.20
2022-09-29T14:12:18.226Z,37.00
2022-09-29T14:15:04.315Z,35.60
2022-09-29T14:18:03.052Z,34.90
2022-09-29T14:21:05.936Z,31.30
2022-09-29T14:23:56.247Z,31.00
2022-09-29T14:26:46.332Z,31.20
2022-09-29T14:29:35.074Z,30.50
2022-09-29T14:32:33.830Z,29.30
2022-09-29T14:35:29.308Z,28.50
2022-09-29T14:38:16.403Z,27.30
2022-09-29T14:41:07.480Z,26.60
2022-09-29T14:44:21.023Z,25.70
2022-09-29T14:51:28.362Z,24.60
2022-09-29T14:54:56.850Z,24.20
2022-09-29T14:58:17.904Z,23.10
2022-09-29T15:01:09.602Z,23.10
2022-09-29T15:04:16.437Z,23.20
2022-09-29T15:07:13.036Z,22.80
2022-09-29T15:09:59.736Z,22.90
2022-09-29T15:12:47.723Z,22.50
2022-09-29T15:15:35.983Z,22.00
2022-09-29T15:18:48.709Z,21.20
2022-09-29T15:21:50.132Z,20.80
2022-09-29T15:24:59.648Z,20.30
2022-09-29T15:27:50.042Z,20.30
2022-09-29T15:30:39.061Z,19.80
2022-09-29T15:33:28.175Z,19.80
2022-09-29T15:36:24.048Z,20.10
2022-09-29T15:39:25.458Z,20.10
2022-09-29T15:42:21.751Z,19.50
2022-09-29T15:45:17.045Z,19.60
2022-09-29T15:48:06.168Z,19.70
2022-09-29T15:50:58.246Z,19.70
2022-09-29T15:53:44.180Z,20.00
2022-09-29T15:56:31.613Z,20.20
2022-09-29T15:59:20.566Z,20.50
2022-09-29T16:02:07.971Z,21.40
2022-09-29T16:05:14.079Z,23.20
2022-09-29T16:08:07.614Z,24.40
2022-09-29T16:10:58.324Z,25.30
2022-09-29T16:13:51.284Z,26.40
2022-09-29T16:16:42.222Z,26.40
2022-09-29T16:19:35.019Z,25.90
2022-09-29T16:22:25.795Z,25.30
2022-09-29T16:25:28.594Z,24.80
2022-09-29T16:28:27.496Z,25.00
2022-09-29T16:31:22.651Z,24.90
2022-09-29T16:34:23.231Z,25.30
2022-09-29T16:37:20.446Z,26.00
2022-09-29T16:40:18.112Z,26.20
2022-09-29T16:43:04.151Z,26.60
2022-09-29T16:45:51.604Z,26.70
2022-09-29T16:48:42.607Z,27.00
2022-09-29T16:51:44.530Z,27.50
2022-09-29T16:54:34.284Z,27.80
2022-09-29T16:57:30.339Z,28.30
2022-09-29T17:00:16.119Z,29.10
2022-09-29T17:03:05.338Z,30.00
2022-09-29T17:05:51.519Z,31.20
2022-09-29T17:08:42.124Z,33.00
2022-09-29T17:11:28.833Z,34.20
2022-09-29T17:14:18.373Z,35.60
2022-09-29T17:17:06.489Z,36.90
2022-09-29T17:19:56.760Z,39.00
2022-09-29T17:22:44.524Z,41.40
2022-09-29T17:25:30.701Z,43.00
2022-09-29T17:28:24.500Z,44.70
2022-09-29T17:31:12.970Z,46.20
2022-09-29T17:33:58.512Z,47.50
2022-09-29T17:36:48.282Z,48.30
2022-09-29T17:39:33.840Z,49.20
2022-09-29T17:42:19.491Z,50.20
2022-09-29T17:45:05.111Z,51.10
2022-09-29T17:47:50.831Z,51.90
2022-09-29T17:50:41.306Z,52.70
2022-09-29T17:53:26.721Z,53.50
2022-09-29T17:56:26.231Z,54.20
2022-09-29T17:59:11.827Z,55.00
2022-09-29T18:01:57.825Z,55.80
2022-09-29T18:04:43.697Z,56.70
2022-09-29T18:07:28.947Z,57.50
2022-09-29T18:10:42.067Z,58.40
2022-09-29T18:13:31.302Z,59.40
2022-09-29T18:16:21.127Z,59.90
2022-09-29T18:19:17.155Z,60.70
2022-09-29T18:22:06.032Z,61.60
2022-09-29T18:24:51.412Z,62.20
2022-09-29T18:27:36.887Z,62.80
2022-09-29T18:30:31.660Z,63.80
2022-09-29T18:33:19.263Z,65.00
2022-09-29T18:36:04.850Z,65.30
2022-09-29T18:38:50.332Z,65.90
2022-09-29T18:41:35.551Z,66.50
2022-09-29T18:44:24.447Z,67.00
2022-09-29T18:47:12.787Z,67.50
2022-09-29T18:50:00.829Z,67.90
2022-09-29T18:52:50.336Z,68.60
2022-09-29T18:55:35.878Z,69.20
2022-09-29T18:58:23.352Z,69.60
2022-09-29T19:01:13.433Z,70.00
2022-09-29T19:03:58.764Z,70.30
2022-09-29T19:06:44.228Z,70.60
2022-09-29T19:09:30.749Z,71.20
2022-09-29T19:12:16.374Z,71.50
2022-09-29T19:15:02.925Z,71.70
2022-09-29T19:17:49.743Z,71.90
2022-09-29T19:20:35.997Z,72.30
2022-09-29T19:23:42.932Z,72.90
2022-09-29T19:26:28.394Z,73.10
2022-09-29T19:29:13.868Z,73.60
2022-09-29T19:31:59.719Z,74.20
2022-09-29T19:34:45.621Z,74.80
2022-09-29T19:37:33.889Z,75.90
2022-09-29T19:40:25.752Z,76.00
2022-09-29T19:43:13.332Z,76.50
2022-09-29T19:46:07.262Z,76.80
2022-09-29T19:48:52.877Z,76.70
2022-09-29T19:51:52.369Z,76.70
2022-09-29T19:54:39.651Z,76.90
2022-09-29T19:57:27.990Z,77.00
2022-09-29T20:00:16.755Z,77.50
2022-09-29T20:03:02.491Z,78.00
2022-09-29T20:05:47.479Z,78.40
2022-09-29T20:08:33.727Z,78.60
2022-09-29T20:11:19.326Z,78.70
2022-09-29T20:14:25.943Z,79.00
2022-09-29T20:17:11.896Z,79.10
2022-09-29T20:19:57.380Z,79.40
2022-09-29T20:22:42.688Z,79.20
2022-09-29T20:25:27.955Z,79.70
2022-09-29T20:28:15.580Z,79.70
2022-09-29T20:31:02.498Z,80.00
2022-09-29T20:33:49.093Z,80.10
2022-09-29T20:36:35.136Z,80.50
2022-09-29T20:39:20.345Z,80.00
2022-09-29T20:42:05.988Z,79.80
2022-09-29T20:44:56.133Z,79.70
2022-09-29T20:47:42.096Z,80.00
2022-09-29T20:50:28.155Z,80.20
2022-09-29T20:53:13.171Z,80.60
2022-09-29T20:56:17.493Z,80.60
2022-09-29T20:59:02.979Z,80.60
2022-09-29T21:01:48.858Z,80.40
2022-09-29T21:04:36.978Z,80.60
2022-09-29T21:07:38.116Z,80.70
2022-09-29T21:10:23.831Z,80.90
2022-09-29T21:13:10.508Z,81.20
2022-09-29T21:16:00.402Z,81.50
2022-09-29T21:18:45.897Z,81.90
2022-09-29T21:21:31.778Z,82.10
2022-09-29T21:24:21.236Z,82.00
2022-09-29T21:27:07.560Z,81.90
2022-09-29T21:29:55.913Z,82.10
2022-09-29T21:32:41.296Z,82.30
2022-09-29T21:35:26.807Z,82.90
2022-09-29T21:38:12.777Z,83.20
2022-09-29T21:41:13.240Z,83.50
2022-09-29T21:44:00.939Z,83.50
2022-09-29T21:46:47.306Z,83.60
2022-09-29T21:49:32.560Z,83.90
2022-09-29T21:52:18.389Z,84.40
2022-09-29T21:55:04.259Z,84.90
2022-09-29T21:57:49.609Z,85.20
2022-09-29T22:00:35.435Z,85.50
2022-09-29T22:03:20.813Z,85.70
2022-09-29T22:06:14.680Z,85.90
2022-09-29T22:09:03.171Z,86.20
2022-09-29T22:11:53.208Z,86.20
2022-09-29T22:14:38.491Z,86.40
2022-09-29T22:17:23.915Z,86.80
2022-09-29T22:20:09.557Z,87.10
2022-09-29T22:22:54.788Z,87.40
2022-09-29T22:25:45.221Z,87.70
2022-09-29T22:28:30.837Z,88.00
2022-09-29T22:31:18.912Z,88.20
2022-09-29T22:34:07.511Z,88.50
2022-09-29T22:36:55.848Z,88.60
2022-09-29T22:39:41.364Z,88.50
2022-09-29T22:42:28.488Z,88.70
2022-09-29T22:45:13.859Z,89.10
2022-09-29T22:48:00.357Z,89.40
2022-09-29T22:50:51.661Z,89.60
2022-09-29T22:53:40.804Z,89.90
2022-09-29T22:56:28.750Z,89.70
2022-09-29T22:59:15.236Z,90.00
2022-09-29T23:02:01.698Z,90.10
2022-09-29T23:04:48.147Z,90.50
2022-09-29T23:07:33.407Z,90.30
2022-09-29T23:10:18.767Z,90.20
2022-09-29T23:13:08.756Z,90.20
2022-09-29T23:15:54.343Z,90.20
2022-09-29T23:18:44.896Z,90.20
2022-09-29T23:21:30.548Z,90.20
2022-09-29T23:24:20.334Z,90.20
2022-09-29T23:27:05.603Z,90.20
2022-09-29T23:29:51.388Z,90.10
2022-09-29T23:32:36.356Z,90.40
2022-09-29T23:35:21.757Z,90.20
2022-09-29T23:38:26.089Z,90.10
2022-09-29T23:41:13.174Z,90.20
2022-09-29T23:44:01.726Z,90.30
2022-09-29T23:46:50.933Z,90.50
2022-09-29T23:49:38.770Z,90.70
2022-09-29T23:52:23.855Z,90.90
2022-09-29T23:55:09.901Z,91.10
2022-09-29T23:57:55.362Z,91.10
